Bramble, Montserrat

8:08 PM AST on July 24, 2016 (GMT -0400)
V C Bird International | | Change Station

Elev 46 ft 17.12 °N, 61.78 °W | Updated 8 minutes ago

Partly Cloudy
Partly Cloudy
82 °F
Feels Like 88 °F
N
9
Wind Variable Wind from East

Today
High -- | Low -- °F
--% Chance of Precip.
Yesterday
High -- | Low -- °F
Precip. -- in
Pressure 30.01 in
Visibility 6.2 miles
Clouds Few 2200 ft
Heat Index 88 °F
Dew Point 73 °F
Humidity 74%
Rainfall 0.00 in
Snow Depth Not available.
5:46 AM 6:43 PM
Waning Gibbous, 72% visible
METAR TAPA 250000Z 09008KT 9999 FEW022 28/23 Q1016 NOSIG
Pressure 30.01 in
Visibility 6.2 miles
Clouds Few 2200 ft
Heat Index 88 °F
Dew Point 73 °F
Humidity 74%
Rainfall 0.00 in
Snow Depth Not available.
5:46 AM 6:43 PM
Waning Gibbous, 72% visible
METAR TAPA 250000Z 09008KT 9999 FEW022 28/23 Q1016 NOSIG

10-Day Weather Forecast

No radar image for this location.
×

Almanac

Astronomy

Jul. 24, 2016 Rise Set
Actual Time
Civil Twilight
Nautical Twilight
Astronomical Twilight
Moon
Length of Visible Light
Length of Day
Tomorrow will be .
, % of the Moon is Illuminated

Today's Extremes

Country Highs Country Lows

Community

WunderPhotos

Upload Photos

1,927,211 photos uploaded!

WunderBlog® & News

Nearby

Air Quality

  Air Quality AQ Index Pollutant
Not available.

Snow Depth

Station Depth Elevation

Earthquake Activity

City Distance Mag. Time & Date
Minimum magnitude displayed is 2.5.

Coastal Water Temperatures

Place Temperature

Stations

Nearby Weather Stations

Station Location Temp. Windchill Dew Point Humidity Wind Precip. Elev Updated Type